createdAt,value
2023-04-26T00:01:07.945Z,7.40
2023-04-26T00:04:12.218Z,13.77
2023-04-26T00:07:16.608Z,8.00
2023-04-26T00:10:21.116Z,18.27
2023-04-26T00:13:25.274Z,9.07
2023-04-26T00:16:29.884Z,9.10
2023-04-26T00:19:34.630Z,11.40
2023-04-26T00:22:39.776Z,8.48
2023-04-26T00:25:43.863Z,9.13
2023-04-26T00:28:47.769Z,7.32
2023-04-26T00:31:52.055Z,6.38
2023-04-26T00:34:56.361Z,11.90
2023-04-26T00:38:00.746Z,9.98
2023-04-26T00:41:05.384Z,13.97
2023-04-26T00:44:09.424Z,7.67
2023-04-26T00:47:13.763Z,18.52
2023-04-26T00:50:18.551Z,8.38
2023-04-26T00:53:24.424Z,11.02
2023-04-26T00:56:29.439Z,9.00
2023-04-26T00:59:36.118Z,7.28
2023-04-26T01:02:40.765Z,6.43
2023-04-26T01:05:45.567Z,7.63
2023-04-26T01:08:53.505Z,7.50
2023-04-26T01:11:59.337Z,10.02
2023-04-26T01:15:05.682Z,5.68
2023-04-26T01:18:10.451Z,13.18
2023-04-26T01:21:22.635Z,14.27
2023-04-26T01:24:27.482Z,6.68
2023-04-26T01:27:31.513Z,6.07
2023-04-26T01:30:35.509Z,9.90
2023-04-26T01:33:40.404Z,8.00
2023-04-26T01:36:45.253Z,9.63
2023-04-26T01:39:50.104Z,6.80
2023-04-26T01:42:57.916Z,5.68
2023-04-26T01:46:05.444Z,15.13
2023-04-26T01:49:10.186Z,5.38
2023-04-26T01:52:14.587Z,7.47
2023-04-26T01:55:18.765Z,11.48
2023-04-26T01:58:23.428Z,3.90
2023-04-26T02:01:28.298Z,21.35
2023-04-26T02:04:33.332Z,4.07
2023-04-26T02:07:37.751Z,4.10
2023-04-26T02:10:42.652Z,3.90
2023-04-26T02:13:47.345Z,34.95
2023-04-26T02:16:52.788Z,9.15
2023-04-26T02:19:57.874Z,4.07
2023-04-26T02:23:02.500Z,3.28
2023-04-26T02:26:06.392Z,3.95
2023-04-26T02:29:10.620Z,6.28
2023-04-26T02:32:15.521Z,3.40
2023-04-26T02:35:19.950Z,7.68
2023-04-26T02:38:27.072Z,7.53
2023-04-26T02:41:34.218Z,3.50
2023-04-26T02:44:40.363Z,4.07
2023-04-26T02:47:45.736Z,3.35
2023-04-26T02:50:50.236Z,4.60
2023-04-26T02:53:54.974Z,4.28
2023-04-26T02:56:59.766Z,7.35
2023-04-26T03:00:06.471Z,4.45
2023-04-26T03:03:13.426Z,6.10
2023-04-26T03:09:23.098Z,7.63
2023-04-26T03:12:28.670Z,3.63
2023-04-26T03:15:33.386Z,3.50
2023-04-26T03:18:38.269Z,5.30
2023-04-26T03:21:43.965Z,6.13
2023-04-26T03:24:48.532Z,6.05
2023-04-26T03:27:53.610Z,2.85
2023-04-26T03:30:58.096Z,5.45
2023-04-26T03:34:02.675Z,8.88
2023-04-26T03:40:13.618Z,5.87
2023-04-26T03:43:18.013Z,3.90
2023-04-26T03:46:22.080Z,5.53
2023-04-26T03:49:27.095Z,9.48
2023-04-26T03:52:32.702Z,3.03
2023-04-26T03:55:37.388Z,3.35
2023-04-26T03:58:42.943Z,3.30
2023-04-26T04:01:48.296Z,5.65
2023-04-26T04:04:53.300Z,5.60
2023-04-26T04:07:58.086Z,3.47
2023-04-26T04:11:03.080Z,2.53
2023-04-26T04:14:08.633Z,6.30
2023-04-26T04:17:12.855Z,3.45
2023-04-26T04:20:17.386Z,3.08
2023-04-26T04:23:22.346Z,4.13
2023-04-26T04:26:27.254Z,4.70
2023-04-26T04:29:32.429Z,3.00
2023-04-26T04:32:37.935Z,2.83
2023-04-26T04:35:44.141Z,3.17
2023-04-26T04:38:48.160Z,9.20
2023-04-26T04:41:55.206Z,7.13
2023-04-26T04:45:00.817Z,8.43
2023-04-26T04:48:07.891Z,4.07
2023-04-26T04:51:12.874Z,2.88
2023-04-26T04:54:19.359Z,4.82
2023-04-26T04:57:24.479Z,2.58
2023-04-26T05:00:29.633Z,8.80
2023-04-26T05:03:49.714Z,3.72
2023-04-26T05:06:54.396Z,5.03
2023-04-26T05:10:00.859Z,4.28
2023-04-26T05:13:09.048Z,21.30
2023-04-26T05:16:14.496Z,9.73
2023-04-26T05:19:18.939Z,3.90
2023-04-26T05:22:23.376Z,3.90
2023-04-26T05:25:28.626Z,2.93
2023-04-26T05:28:41.466Z,2.92
2023-04-26T05:32:14.645Z,20.38
2023-04-26T05:35:18.612Z,5.15
2023-04-26T05:38:23.329Z,3.50
2023-04-26T05:41:28.214Z,6.63
2023-04-26T05:44:32.921Z,15.87
2023-04-26T05:47:37.702Z,4.07
2023-04-26T05:50:41.794Z,6.07
2023-04-26T05:53:45.988Z,3.88
2023-04-26T05:56:50.654Z,5.23
2023-04-26T05:59:55.105Z,6.13
2023-04-26T06:03:00.169Z,5.55
2023-04-26T06:06:04.690Z,8.10
2023-04-26T06:09:09.462Z,6.25
2023-04-26T06:12:14.002Z,10.75
2023-04-26T06:15:21.341Z,3.47
2023-04-26T06:18:25.785Z,4.60
2023-04-26T06:21:36.228Z,4.93
2023-04-26T06:24:40.247Z,6.72
2023-04-26T06:27:44.692Z,7.63
2023-04-26T06:30:49.505Z,6.28
2023-04-26T06:33:54.324Z,4.13
2023-04-26T06:36:59.035Z,12.93
2023-04-26T06:40:10.005Z,8.10
2023-04-26T06:43:14.187Z,8.17
2023-04-26T06:46:44.427Z,3.92
2023-04-26T06:49:48.442Z,6.88
2023-04-26T06:52:53.024Z,7.35
2023-04-26T06:55:59.010Z,5.13
2023-04-26T06:59:07.908Z,12.48
2023-04-26T07:02:13.352Z,5.40
2023-04-26T07:05:19.492Z,6.20
2023-04-26T07:08:23.608Z,9.18
2023-04-26T07:11:27.844Z,20.65
2023-04-26T07:14:32.729Z,6.85
2023-04-26T07:17:37.520Z,7.55
2023-04-26T07:20:41.707Z,14.70
2023-04-26T07:23:45.603Z,20.38
2023-04-26T07:26:50.111Z,10.80
2023-04-26T07:29:57.445Z,12.50
2023-04-26T07:33:01.494Z,6.85
2023-04-26T07:36:06.441Z,5.22
2023-04-26T07:39:12.561Z,4.18
2023-04-26T07:42:16.682Z,3.90
2023-04-26T07:45:20.725Z,3.20
2023-04-26T07:48:25.503Z,7.68
2023-04-26T07:51:30.233Z,6.60
2023-04-26T07:54:34.842Z,9.77
2023-04-26T07:57:41.051Z,5.43
2023-04-26T08:00:45.600Z,5.85
2023-04-26T08:03:50.890Z,3.47
2023-04-26T08:06:54.945Z,7.15
2023-04-26T08:09:59.275Z,6.47
2023-04-26T08:13:04.172Z,3.40
2023-04-26T08:16:08.769Z,7.50
2023-04-26T08:19:13.371Z,4.07
2023-04-26T08:22:18.172Z,3.83
2023-04-26T08:25:22.268Z,10.48
2023-04-26T08:28:26.711Z,7.40
2023-04-26T08:31:30.559Z,8.35
2023-04-26T08:34:34.585Z,5.80
2023-04-26T08:37:39.218Z,6.68
2023-04-26T08:40:47.872Z,5.33
2023-04-26T08:43:53.822Z,9.05
2023-04-26T08:47:11.484Z,16.38
2023-04-26T08:50:21.508Z,8.52
2023-04-26T08:53:26.272Z,3.45
2023-04-26T08:56:30.414Z,4.13
2023-04-26T08:59:45.314Z,5.00
2023-04-26T09:02:54.407Z,5.32
2023-04-26T09:06:01.091Z,5.40
2023-04-26T09:09:08.993Z,4.63
2023-04-26T09:12:13.011Z,4.53
2023-04-26T09:15:17.644Z,7.18
2023-04-26T09:18:24.281Z,4.25
2023-04-26T09:21:40.436Z,5.53
2023-04-26T09:27:53.724Z,5.05
2023-04-26T09:30:57.802Z,6.32
2023-04-26T09:34:02.124Z,9.73
2023-04-26T09:37:06.735Z,5.88
2023-04-26T09:40:20.813Z,27.80
2023-04-26T09:43:24.916Z,43.45
2023-04-26T09:46:28.841Z,35.58
2023-04-26T09:49:34.984Z,7.03
2023-04-26T09:52:48.388Z,16.20
2023-04-26T09:55:53.080Z,24.00
2023-04-26T09:59:01.400Z,9.70
2023-04-26T10:02:06.265Z,4.28
2023-04-26T10:05:11.238Z,5.47
2023-04-26T10:08:16.447Z,5.03
2023-04-26T10:11:23.316Z,5.75
2023-04-26T10:14:29.548Z,9.55
2023-04-26T10:17:33.913Z,6.75
2023-04-26T10:20:43.135Z,4.43
2023-04-26T10:23:50.222Z,5.70
2023-04-26T10:26:57.794Z,6.68
2023-04-26T10:30:05.906Z,35.08
2023-04-26T10:33:14.964Z,10.00
2023-04-26T10:36:21.933Z,9.38
2023-04-26T10:39:28.987Z,8.60
2023-04-26T10:42:33.219Z,11.00
2023-04-26T10:45:38.484Z,26.63
2023-04-26T10:48:42.809Z,24.98
2023-04-26T10:52:13.305Z,26.92
2023-04-26T10:55:43.260Z,21.48
2023-04-26T10:58:48.820Z,22.30
2023-04-26T11:01:54.056Z,33.10
2023-04-26T11:04:59.583Z,20.65
2023-04-26T11:11:15.758Z,16.60
2023-04-26T11:14:20.373Z,18.13
2023-04-26T11:17:40.048Z,19.52
2023-04-26T11:20:54.950Z,29.75
2023-04-26T11:23:59.065Z,38.90
2023-04-26T11:27:10.581Z,44.90
2023-04-26T11:30:15.329Z,44.83
2023-04-26T11:33:23.167Z,49.42
2023-04-26T11:36:28.033Z,49.35
2023-04-26T11:39:34.227Z,41.25
2023-04-26T11:42:39.034Z,31.98
2023-04-26T11:45:43.982Z,33.60
2023-04-26T11:48:48.724Z,49.17
2023-04-26T11:51:53.475Z,102.47
2023-04-26T11:55:07.309Z,146.50
2023-04-26T11:58:15.966Z,103.18
2023-04-26T12:01:29.506Z,130.07
2023-04-26T12:04:38.743Z,122.00
2023-04-26T12:07:43.605Z,107.50
2023-04-26T12:10:48.291Z,98.90
2023-04-26T12:13:54.318Z,83.50
2023-04-26T12:17:04.203Z,106.32
2023-04-26T12:20:13.156Z,95.53
2023-04-26T12:23:19.087Z,51.22
2023-04-26T12:26:23.716Z,57.55
2023-04-26T12:29:31.338Z,43.20
2023-04-26T12:32:36.224Z,34.45
2023-04-26T12:35:40.966Z,84.33
2023-04-26T12:38:45.513Z,61.17
2023-04-26T12:41:50.457Z,46.72
2023-04-26T12:44:54.829Z,61.27
2023-04-26T12:47:59.053Z,35.83
2023-04-26T12:51:04.156Z,52.03
2023-04-26T12:54:10.108Z,48.33
2023-04-26T12:57:15.434Z,73.13
2023-04-26T13:00:22.063Z,92.32
2023-04-26T13:03:27.111Z,83.50
2023-04-26T13:06:33.057Z,90.25
2023-04-26T13:12:43.612Z,93.60
2023-04-26T13:15:49.287Z,84.38
2023-04-26T13:18:53.900Z,77.70
2023-04-26T13:21:58.572Z,105.80
2023-04-26T13:25:03.246Z,99.45
2023-04-26T13:28:08.575Z,85.53
2023-04-26T13:31:12.679Z,54.77
2023-04-26T13:34:17.254Z,46.75
2023-04-26T13:37:23.180Z,56.90
2023-04-26T13:40:27.801Z,45.13
2023-04-26T13:43:33.866Z,48.72
2023-04-26T13:46:38.554Z,35.88
2023-04-26T13:49:43.076Z,33.50
2023-04-26T13:52:47.694Z,30.52
2023-04-26T13:55:51.665Z,33.30
2023-04-26T13:59:02.207Z,41.42
2023-04-26T14:02:06.780Z,26.10
2023-04-26T14:05:11.249Z,97.63
2023-04-26T14:08:15.584Z,36.08
2023-04-26T14:11:20.227Z,45.90
2023-04-26T14:14:24.448Z,26.95
2023-04-26T14:17:29.973Z,29.15
2023-04-26T14:20:34.559Z,31.65
2023-04-26T14:23:38.987Z,23.92
2023-04-26T14:26:43.087Z,32.05
2023-04-26T14:29:46.857Z,27.35
2023-04-26T14:32:51.425Z,28.35
2023-04-26T14:35:57.133Z,33.80
2023-04-26T14:39:01.611Z,29.63
2023-04-26T14:42:06.531Z,30.35
2023-04-26T14:45:11.654Z,30.02
2023-04-26T14:48:16.950Z,28.98
2023-04-26T14:51:23.930Z,24.08
2023-04-26T14:54:27.748Z,24.20
2023-04-26T14:57:33.604Z,24.85
2023-04-26T15:00:39.758Z,24.88
2023-04-26T15:03:44.171Z,23.27
2023-04-26T15:06:48.802Z,25.33
2023-04-26T15:09:53.328Z,25.00
2023-04-26T15:12:57.856Z,28.98
2023-04-26T15:16:08.419Z,28.73
2023-04-26T15:19:13.289Z,26.52
2023-04-26T15:22:17.821Z,27.77
2023-04-26T15:25:22.585Z,40.22
2023-04-26T15:28:26.972Z,51.60
2023-04-26T15:31:31.078Z,44.80
2023-04-26T15:34:41.588Z,23.00
2023-04-26T15:37:46.453Z,33.17
2023-04-26T15:40:54.699Z,242.40
2023-04-26T15:44:00.301Z,153.38
2023-04-26T15:47:04.736Z,79.18
2023-04-26T15:50:10.044Z,65.63
2023-04-26T15:53:14.571Z,55.50
2023-04-26T15:56:18.641Z,68.10
2023-04-26T15:59:23.201Z,41.92
2023-04-26T16:02:27.457Z,31.65
2023-04-26T16:05:32.475Z,22.23
2023-04-26T16:08:40.342Z,23.02
2023-04-26T16:11:45.399Z,28.58
2023-04-26T16:14:52.007Z,20.20
2023-04-26T16:17:56.215Z,18.35
2023-04-26T16:21:10.357Z,23.67
2023-04-26T16:24:14.837Z,30.60
2023-04-26T16:27:21.852Z,32.63
2023-04-26T16:30:26.412Z,35.20
2023-04-26T16:33:30.713Z,26.38
2023-04-26T16:36:34.764Z,16.42
2023-04-26T16:39:39.197Z,18.42
2023-04-26T16:42:45.312Z,17.67
2023-04-26T16:45:59.156Z,18.67
2023-04-26T16:49:10.004Z,39.65
2023-04-26T16:52:14.165Z,17.25
2023-04-26T16:55:18.328Z,22.33
2023-04-26T16:58:23.141Z,25.10
2023-04-26T17:01:27.652Z,20.50
2023-04-26T17:04:32.610Z,20.17
2023-04-26T17:07:37.862Z,24.05
2023-04-26T17:10:43.141Z,27.77
2023-04-26T17:13:47.235Z,26.70
2023-04-26T17:16:51.668Z,33.78
2023-04-26T17:19:56.200Z,20.30
2023-04-26T17:23:02.173Z,14.68
2023-04-26T17:26:06.203Z,15.32
2023-04-26T17:29:10.461Z,23.77
2023-04-26T17:32:14.454Z,23.90
2023-04-26T17:35:18.938Z,24.40
2023-04-26T17:38:22.968Z,32.70
2023-04-26T17:41:27.022Z,25.23
2023-04-26T17:44:31.023Z,29.25
2023-04-26T17:47:35.185Z,24.20
2023-04-26T17:50:39.397Z,35.25
2023-04-26T17:53:43.715Z,26.23
2023-04-26T17:56:48.572Z,21.75
2023-04-26T17:59:53.021Z,20.33
2023-04-26T18:02:58.624Z,22.02
2023-04-26T18:06:02.812Z,23.45
2023-04-26T18:09:07.972Z,29.45
2023-04-26T18:12:12.463Z,24.67
2023-04-26T18:15:16.243Z,21.77
2023-04-26T18:18:20.474Z,15.95
2023-04-26T18:21:24.698Z,15.30
2023-04-26T18:24:29.155Z,14.30
2023-04-26T18:27:33.873Z,14.60
2023-04-26T18:30:37.937Z,14.77
2023-04-26T18:33:42.408Z,18.65
2023-04-26T18:36:46.758Z,27.40
2023-04-26T18:39:50.890Z,22.38
2023-04-26T18:42:55.494Z,17.30
2023-04-26T18:46:00.221Z,26.17
2023-04-26T18:49:05.044Z,23.20
2023-04-26T18:52:09.663Z,16.33
2023-04-26T18:55:14.370Z,23.17
2023-04-26T18:58:18.801Z,27.13
2023-04-26T19:01:23.720Z,32.53
2023-04-26T19:04:29.007Z,28.17
2023-04-26T19:07:33.251Z,30.80
2023-04-26T19:10:37.775Z,31.77
2023-04-26T19:13:42.664Z,44.05
2023-04-26T19:16:47.926Z,41.30
2023-04-26T19:19:52.974Z,58.53
2023-04-26T19:22:57.444Z,60.43
2023-04-26T19:26:09.977Z,70.88
2023-04-26T19:29:14.401Z,48.85
2023-04-26T19:32:20.635Z,45.83
2023-04-26T19:35:25.216Z,35.60
2023-04-26T19:38:30.162Z,32.78
2023-04-26T19:41:34.759Z,40.42
2023-04-26T19:44:40.738Z,37.90
2023-04-26T19:47:45.234Z,36.45
2023-04-26T19:50:50.091Z,43.75
2023-04-26T19:53:54.953Z,24.92
2023-04-26T19:56:59.952Z,30.33
2023-04-26T20:00:05.806Z,31.50
2023-04-26T20:03:11.761Z,30.90
2023-04-26T20:06:16.833Z,25.27
2023-04-26T20:09:21.895Z,29.77
2023-04-26T20:12:26.395Z,26.45
2023-04-26T20:15:32.991Z,34.85
2023-04-26T20:18:38.475Z,32.03
2023-04-26T20:21:43.022Z,38.97
2023-04-26T20:24:47.536Z,34.97
2023-04-26T20:27:52.376Z,41.95
2023-04-26T20:30:57.111Z,44.15
2023-04-26T20:34:01.822Z,38.55
2023-04-26T20:37:06.715Z,32.67
2023-04-26T20:40:11.687Z,28.70
2023-04-26T20:43:16.915Z,31.37
2023-04-26T20:46:21.923Z,27.50
2023-04-26T20:49:26.405Z,31.75
2023-04-26T20:52:31.032Z,23.48
2023-04-26T20:55:35.840Z,23.60
2023-04-26T20:58:41.953Z,21.27
2023-04-26T21:01:46.499Z,21.95
2023-04-26T21:04:51.425Z,23.25
2023-04-26T21:07:56.328Z,20.85
2023-04-26T21:11:00.976Z,23.35
2023-04-26T21:14:06.063Z,21.33
2023-04-26T21:17:10.590Z,22.20
2023-04-26T21:20:15.376Z,28.83
2023-04-26T21:23:20.293Z,26.53
2023-04-26T21:26:24.894Z,33.27
2023-04-26T21:29:29.521Z,26.98
2023-04-26T21:32:34.255Z,29.73
2023-04-26T21:35:38.357Z,38.42
2023-04-26T21:38:42.339Z,45.78
2023-04-26T21:41:46.725Z,34.90
2023-04-26T21:44:51.156Z,50.97
2023-04-26T21:47:56.791Z,51.33
2023-04-26T21:51:04.839Z,51.65
2023-04-26T21:54:08.985Z,39.90
2023-04-26T21:57:13.707Z,56.35
2023-04-26T22:00:18.924Z,52.35
2023-04-26T22:03:24.537Z,49.78
2023-04-26T22:06:29.837Z,45.67
2023-04-26T22:09:33.713Z,51.65
2023-04-26T22:12:38.065Z,70.03
2023-04-26T22:15:42.780Z,36.13
2023-04-26T22:18:46.986Z,62.63
2023-04-26T22:21:51.432Z,18.15
2023-04-26T22:24:56.460Z,23.63
2023-04-26T22:28:00.659Z,48.88
2023-04-26T22:31:04.688Z,24.98
2023-04-26T22:34:09.181Z,35.22
2023-04-26T22:37:21.115Z,55.88
2023-04-26T22:40:26.410Z,49.92
2023-04-26T22:43:31.098Z,187.52
2023-04-26T22:46:35.946Z,155.18
2023-04-26T22:49:40.463Z,192.15
2023-04-26T22:52:44.707Z,163.38
2023-04-26T22:55:49.628Z,78.00
2023-04-26T22:58:54.454Z,69.80
2023-04-26T23:01:59.036Z,23.53
2023-04-26T23:09:23.612Z,54.47
2023-04-26T23:12:58.261Z,31.45
2023-04-26T23:17:09.238Z,24.02
2023-04-26T23:26:28.283Z,32.25
2023-04-26T23:29:43.196Z,14.10
2023-04-26T23:32:47.776Z,19.50
2023-04-26T23:35:53.056Z,17.58
2023-04-26T23:38:57.692Z,22.90
2023-04-26T23:42:02.115Z,16.65
2023-04-26T23:45:08.576Z,24.73
2023-04-26T23:48:13.322Z,34.25
2023-04-26T23:51:18.128Z,35.03
2023-04-26T23:54:22.580Z,22.45
2023-04-26T23:57:27.405Z,31.58
